Time;durP1;ratioP1;P1;durP2;ratioP2;P2;SDS_P1;SDS_P2;PMS_P1;PMS_P2;Temp;Humidity;BMP_temperature;BMP_pressure;BME280_temperature;BME280_humidity;BME280_pressure;Samples;Min_cycle;Max_cycle;Signal;HPM_P1;HPM_P2
2020/12/08 00:02:21;;;;;;;43.25;20.60;;;4.20;82.00;;;;;;5066995;28;20033;-68
2020/12/08 00:04:46;;;;;;;43.65;21.27;;;4.20;82.00;;;;;;5063321;28;20037;-68
2020/12/08 00:07:12;;;;;;;41.72;21.38;;;4.20;82.00;;;;;;5065243;28;20159;-67
2020/12/08 00:09:38;;;;;;;43.10;21.20;;;4.20;82.00;;;;;;5060345;28;20423;-68
2020/12/08 00:12:04;;;;;;;44.42;20.92;;;4.20;82.00;;;;;;5066644;28;20740;-68
2020/12/08 00:14:30;;;;;;;39.55;19.40;;;4.10;82.00;;;;;;5059145;28;20035;-68
2020/12/08 00:16:56;;;;;;;40.35;20.33;;;4.20;82.10;;;;;;5066787;28;20029;-68
2020/12/08 00:19:21;;;;;;;41.70;19.92;;;4.10;82.00;;;;;;5078245;28;20115;-68
2020/12/08 00:21:47;;;;;;;37.05;19.00;;;4.20;82.10;;;;;;5067545;28;20507;-68
2020/12/08 00:24:13;;;;;;;37.88;18.88;;;4.20;82.20;;;;;;5063391;28;20033;-69
2020/12/08 00:26:40;;;;;;;39.13;18.98;;;4.20;82.20;;;;;;5064930;28;20029;-69
2020/12/08 00:29:07;;;;;;;37.45;18.70;;;4.20;82.20;;;;;;5076203;28;20039;-68
2020/12/08 00:31:33;;;;;;;37.25;18.73;;;4.20;82.10;;;;;;5068498;28;20033;-69
2020/12/08 00:33:59;;;;;;;35.83;17.75;;;4.20;82.20;;;;;;5066309;28;20464;-68
2020/12/08 00:36:25;;;;;;;38.65;18.60;;;4.20;82.10;;;;;;5074671;28;20228;-68
2020/12/08 00:38:51;;;;;;;33.70;17.02;;;4.20;82.30;;;;;;5070425;28;20051;-68
2020/12/08 00:41:18;;;;;;;37.92;18.35;;;4.20;82.10;;;;;;5082998;28;20399;-68
2020/12/08 00:43:45;;;;;;;39.03;18.52;;;4.20;82.10;;;;;;5064256;28;20526;-68
2020/12/08 00:46:11;;;;;;;41.10;20.60;;;4.30;82.10;;;;;;5086952;28;20127;-68
2020/12/08 00:48:41;;;;;;;39.60;19.20;;;4.30;82.00;;;;;;5077842;28;20032;-68
2020/12/08 00:51:07;;;;;;;33.60;16.77;;;4.30;82.00;;;;;;5076932;28;20530;-68
2020/12/08 00:53:33;;;;;;;35.67;17.95;;;4.30;82.00;;;;;;5068068;28;20020;-68
2020/12/08 00:55:59;;;;;;;35.95;18.33;;;4.30;81.90;;;;;;5077379;28;20047;-67
2020/12/08 00:58:26;;;;;;;39.22;19.83;;;4.30;81.90;;;;;;5075497;28;20020;-68
2020/12/08 01:00:52;;;;;;;40.05;19.13;;;4.30;81.80;;;;;;5066092;28;20177;-67
2020/12/08 01:03:18;;;;;;;39.30;19.50;;;4.30;81.80;;;;;;5058028;28;20665;-67
2020/12/08 01:05:44;;;;;;;36.70;19.35;;;4.30;81.90;;;;;;5069863;28;20067;-68
2020/12/08 01:08:09;;;;;;;32.53;16.70;;;4.30;81.80;;;;;;5065905;28;20120;-68
2020/12/08 01:10:35;;;;;;;30.15;16.38;;;4.30;81.60;;;;;;5063612;28;21258;-67
2020/12/08 01:13:01;;;;;;;33.78;17.42;;;4.20;81.50;;;;;;5069493;28;20037;-68
2020/12/08 01:15:27;;;;;;;32.90;16.80;;;4.20;81.50;;;;;;5067135;28;20036;-68
2020/12/08 01:17:53;;;;;;;32.05;17.17;;;4.20;81.50;;;;;;5071205;28;20506;-68
2020/12/08 01:20:19;;;;;;;32.40;16.77;;;4.20;81.40;;;;;;5078413;28;20032;-69
2020/12/08 01:22:44;;;;;;;33.72;17.63;;;4.20;81.40;;;;;;5065049;28;20041;-69
2020/12/08 01:25:10;;;;;;;32.63;16.42;;;4.20;81.40;;;;;;5070741;28;20041;-68
2020/12/08 01:27:36;;;;;;;31.95;16.83;;;4.20;81.40;;;;;;5070542;28;20551;-69
2020/12/08 01:30:03;;;;;;;28.98;16.23;;;4.20;81.40;;;;;;5080258;28;20580;-68
2020/12/08 01:32:29;;;;;;;33.20;17.88;;;4.30;81.30;;;;;;5068908;28;20043;-68
2020/12/08 01:34:54;;;;;;;31.15;16.65;;;4.20;81.30;;;;;;5059375;28;20607;-68
2020/12/08 01:37:20;;;;;;;30.80;16.95;;;4.20;81.30;;;;;;5071438;28;20048;-66
2020/12/08 01:39:45;;;;;;;30.63;16.63;;;4.20;81.30;;;;;;5067856;28;20116;-69
2020/12/08 01:42:11;;;;;;;32.30;17.35;;;4.20;81.30;;;;;;5066479;28;20028;-68
2020/12/08 01:44:37;;;;;;;33.13;17.67;;;4.20;81.30;;;;;;5066640;28;20060;-68
2020/12/08 01:47:03;;;;;;;31.85;16.95;;;4.20;81.20;;;;;;5063861;28;20029;-68
2020/12/08 01:49:29;;;;;;;29.63;16.40;;;4.20;81.20;;;;;;5077523;28;20505;-68
2020/12/08 01:51:55;;;;;;;31.40;16.60;;;4.20;81.30;;;;;;5065553;28;20039;-68
2020/12/08 01:54:21;;;;;;;27.02;15.80;;;4.20;81.30;;;;;;5068387;28;20020;-68
2020/12/08 01:56:48;;;;;;;29.42;16.33;;;4.20;81.10;;;;;;5068771;28;20037;-67
2020/12/08 01:59:13;;;;;;;27.15;15.32;;;4.20;81.00;;;;;;5069492;28;20031;-68
2020/12/08 02:01:39;;;;;;;28.05;15.55;;;4.20;80.80;;;;;;5064914;28;20037;-66
2020/12/08 02:04:06;;;;;;;25.52;15.32;;;4.10;80.70;;;;;;5063592;28;20132;-68
2020/12/08 02:06:32;;;;;;;27.90;16.25;;;4.10;80.70;;;;;;5075754;28;20078;-68
2020/12/08 02:08:57;;;;;;;25.90;15.55;;;4.00;80.80;;;;;;5065184;28;20503;-68
2020/12/08 02:11:23;;;;;;;28.95;16.25;;;4.00;80.90;;;;;;5071741;28;20033;-67
2020/12/08 02:13:48;;;;;;;28.63;16.83;;;4.00;81.00;;;;;;5079219;28;20467;-68
2020/12/08 02:16:15;;;;;;;25.52;15.30;;;4.00;81.10;;;;;;5078621;28;20404;-68
2020/12/08 02:18:40;;;;;;;26.08;15.02;;;4.00;81.10;;;;;;5065425;28;22306;-68
2020/12/08 02:21:06;;;;;;;28.40;16.83;;;3.90;81.10;;;;;;5077217;28;20411;-68
2020/12/08 02:23:32;;;;;;;27.25;16.15;;;3.90;81.00;;;;;;5068718;28;20028;-68
2020/12/08 02:26:00;;;;;;;27.33;15.63;;;3.90;81.00;;;;;;5071988;28;20222;-67
2020/12/08 02:28:27;;;;;;;27.02;15.32;;;3.90;80.90;;;;;;5072171;28;20483;-68
2020/12/08 02:30:53;;;;;;;29.15;16.83;;;3.90;80.90;;;;;;5062281;28;20033;-67
2020/12/08 02:33:27;;;;;;;24.73;15.07;;;3.90;81.10;;;;;;5061066;28;20036;-68
2020/12/08 02:35:55;;;;;;;25.55;14.13;;;3.90;80.80;;;;;;5069570;28;20035;-68
2020/12/08 02:38:25;;;;;;;27.15;15.40;;;3.90;80.90;;;;;;5068393;28;20565;-68
2020/12/08 02:40:51;;;;;;;29.58;16.40;;;3.90;80.90;;;;;;5065107;28;20130;-67
2020/12/08 02:43:17;;;;;;;26.67;15.25;;;3.90;81.50;;;;;;5062424;28;20037;-68
2020/12/08 02:45:44;;;;;;;26.67;15.80;;;3.90;80.60;;;;;;5065765;28;20093;-68
2020/12/08 02:48:09;;;;;;;26.40;16.15;;;3.80;81.40;;;;;;5066182;28;20032;-68
2020/12/08 02:50:38;;;;;;;26.08;15.23;;;3.80;80.60;;;;;;5081059;28;20093;-68
2020/12/08 02:53:04;;;;;;;27.92;16.15;;;3.70;80.60;;;;;;5068387;28;20633;-68
2020/12/08 02:55:30;;;;;;;27.17;15.70;;;3.70;80.70;;;;;;5071957;28;20125;-68
2020/12/08 02:57:56;;;;;;;29.55;15.45;;;3.70;80.70;;;;;;5074299;28;20029;-67
2020/12/08 03:00:21;;;;;;;26.88;16.10;;;3.70;80.80;;;;;;5070367;28;20119;-69
2020/12/08 03:02:47;;;;;;;25.58;15.38;;;3.60;80.70;;;;;;5060024;28;20401;-68
2020/12/08 03:05:12;;;;;;;25.63;15.32;;;3.60;80.80;;;;;;5070798;28;20037;-68
2020/12/08 03:07:39;;;;;;;26.85;16.45;;;3.50;80.90;;;;;;5067861;28;20039;-68
2020/12/08 03:10:08;;;;;;;27.67;15.65;;;3.50;81.10;;;;;;5064995;28;20564;-66
2020/12/08 03:12:35;;;;;;;27.35;15.68;;;3.60;81.30;;;;;;5070045;28;20061;-68
2020/12/08 03:15:05;;;;;;;27.83;15.88;;;3.50;81.30;;;;;;5061231;28;20029;-68
2020/12/08 03:17:31;;;;;;;24.90;15.27;;;3.50;81.30;;;;;;5067501;28;20510;-68
2020/12/08 03:19:57;;;;;;;27.63;15.45;;;3.50;81.30;;;;;;5072533;28;20604;-68
2020/12/08 03:22:23;;;;;;;29.02;16.40;;;3.50;81.30;;;;;;5063169;28;20123;-68
2020/12/08 03:24:49;;;;;;;26.80;15.80;;;3.50;81.40;;;;;;5075389;28;20040;-68
2020/12/08 03:27:15;;;;;;;29.08;16.20;;;3.50;81.60;;;;;;5061607;28;20040;-69
2020/12/08 03:29:41;;;;;;;30.23;17.35;;;3.50;82.60;;;;;;5065077;28;20866;-68
2020/12/08 03:32:07;;;;;;;25.88;15.60;;;3.50;81.80;;;;;;5076418;28;20047;-68
2020/12/08 03:34:33;;;;;;;26.95;16.13;;;3.50;81.80;;;;;;5082694;28;20028;-68
2020/12/08 03:36:59;;;;;;;25.63;15.68;;;3.50;81.90;;;;;;5063795;28;20044;-68
2020/12/08 03:39:24;;;;;;;29.80;16.17;;;3.50;81.80;;;;;;5067091;28;20029;-69
2020/12/08 03:41:50;;;;;;;29.65;16.77;;;3.60;81.80;;;;;;5078360;28;20037;-68
2020/12/08 03:44:15;;;;;;;28.45;15.82;;;3.60;81.60;;;;;;5071869;28;20029;-68
2020/12/08 03:46:41;;;;;;;27.73;16.27;;;3.60;81.60;;;;;;5064016;28;20059;-68
2020/12/08 03:49:07;;;;;;;27.15;16.20;;;3.60;81.50;;;;;;5067929;28;20120;-68
2020/12/08 03:51:32;;;;;;;26.08;15.23;;;3.60;81.40;;;;;;5066104;28;20024;-68
2020/12/08 03:53:58;;;;;;;26.95;15.57;;;3.60;81.40;;;;;;5060633;28;20054;-68
2020/12/08 03:56:23;;;;;;;26.17;15.77;;;3.60;81.30;;;;;;5079242;28;20032;-68
2020/12/08 03:58:50;;;;;;;25.80;15.38;;;3.60;81.30;;;;;;5071200;28;20032;-68
2020/12/08 04:01:20;;;;;;;28.25;16.40;;;3.60;81.30;;;;;;5066597;28;20028;-68
2020/12/08 04:03:47;;;;;;;25.98;15.77;;;3.60;81.20;;;;;;5075162;28;20048;-69
2020/12/08 04:06:13;;;;;;;27.63;15.52;;;3.60;81.20;;;;;;5063710;28;20028;-68
2020/12/08 04:08:47;;;;;;;25.20;14.98;;;3.60;81.10;;;;;;5068899;28;20036;-68
2020/12/08 04:11:14;;;;;;;27.95;16.30;;;3.60;81.10;;;;;;5077539;28;20458;-68
2020/12/08 04:13:40;;;;;;;26.63;15.77;;;3.60;81.20;;;;;;5071154;28;20029;-67
2020/12/08 04:16:12;;;;;;;28.13;15.77;;;3.60;81.20;;;;;;5064224;28;20545;-68
2020/12/08 04:18:38;;;;;;;31.80;16.98;;;3.60;81.20;;;;;;5076398;28;20024;-68
2020/12/08 04:21:03;;;;;;;29.33;15.68;;;3.60;81.20;;;;;;5068734;28;20035;-68
2020/12/08 04:23:29;;;;;;;28.35;16.70;;;3.60;81.30;;;;;;5073818;28;20647;-68
2020/12/08 04:25:54;;;;;;;27.92;15.55;;;3.50;81.30;;;;;;5068187;28;20067;-67
2020/12/08 04:28:20;;;;;;;25.60;15.00;;;3.50;81.30;;;;;;5074610;28;20025;-68
2020/12/08 04:30:45;;;;;;;26.80;15.57;;;3.50;81.10;;;;;;5067127;28;20055;-68
2020/12/08 04:33:13;;;;;;;27.38;15.88;;;3.50;81.10;;;;;;5069926;28;21831;-68
2020/12/08 04:35:42;;;;;;;28.15;16.67;;;3.50;81.10;;;;;;5063503;28;20123;-68
2020/12/08 04:38:09;;;;;;;27.25;15.88;;;3.50;81.30;;;;;;5057517;28;20042;-68
2020/12/08 04:40:35;;;;;;;26.73;15.80;;;3.50;81.20;;;;;;5063601;28;20507;-68
2020/12/08 04:43:04;;;;;;;24.67;14.95;;;3.50;81.30;;;;;;5068036;28;20601;-68
2020/12/08 04:45:30;;;;;;;27.70;15.77;;;3.50;81.30;;;;;;5076705;28;20122;-67
2020/12/08 04:48:05;;;;;;;28.88;16.60;;;3.60;81.40;;;;;;5069481;28;20595;-68
2020/12/08 04:50:32;;;;;;;28.38;16.83;;;3.50;81.30;;;;;;5062424;28;20445;-68
2020/12/08 04:52:57;;;;;;;27.67;16.10;;;3.60;82.10;;;;;;5059654;28;20090;-68
2020/12/08 04:55:23;;;;;;;28.70;16.85;;;3.60;82.10;;;;;;5062661;28;20032;-68
2020/12/08 04:57:49;;;;;;;26.60;16.35;;;3.60;81.20;;;;;;5064331;28;20040;-68
2020/12/08 05:00:15;;;;;;;26.98;16.27;;;3.60;81.20;;;;;;5060714;28;20036;-68
2020/12/08 05:02:51;;;;;;;26.23;15.20;;;3.60;81.10;;;;;;5059657;28;20040;-67
2020/12/08 05:05:18;;;;;;;28.30;15.93;;;3.60;81.10;;;;;;5071640;28;20032;-68
2020/12/08 05:07:45;;;;;;;28.25;16.15;;;3.60;81.10;;;;;;5073418;28;20612;-68
2020/12/08 05:10:11;;;;;;;26.25;16.08;;;3.60;81.10;;;;;;5088826;28;20414;-68
2020/12/08 05:12:36;;;;;;;25.80;15.45;;;3.50;80.90;;;;;;5078106;28;20377;-67
2020/12/08 05:15:03;;;;;;;27.35;14.98;;;3.50;81.00;;;;;;5069176;28;20035;-67
2020/12/08 05:17:29;;;;;;;24.60;15.07;;;3.50;80.90;;;;;;5073965;28;20020;-68
2020/12/08 05:20:22;;;;;;;24.65;15.13;;;3.50;80.90;;;;;;5067404;28;20059;-68
2020/12/08 05:22:58;;;;;;;26.20;14.98;;;3.50;80.60;;;;;;5061996;28;20029;-68
2020/12/08 05:25:26;;;;;;;25.23;15.20;;;3.50;80.70;;;;;;5063479;28;20060;-68
2020/12/08 05:27:56;;;;;;;25.60;15.13;;;3.50;80.80;;;;;;5062105;28;20033;-67
2020/12/08 05:30:23;;;;;;;28.08;15.70;;;3.50;80.70;;;;;;5055387;28;20025;-68
2020/12/08 05:32:49;;;;;;;27.05;15.63;;;3.50;80.70;;;;;;5057118;28;20060;-68
2020/12/08 05:35:24;;;;;;;27.73;16.02;;;3.50;80.70;;;;;;5063724;28;20399;-69
2020/12/08 05:37:52;;;;;;;25.23;15.05;;;3.40;80.70;;;;;;5065860;28;20051;-68
2020/12/08 05:40:20;;;;;;;28.20;15.70;;;3.50;80.80;;;;;;5057197;28;20516;-67
2020/12/08 05:42:47;;;;;;;26.30;15.05;;;3.40;80.70;;;;;;5058512;28;20051;-68
2020/12/08 05:45:15;;;;;;;26.48;15.35;;;3.40;80.70;;;;;;5069222;28;20033;-68
2020/12/08 05:47:54;;;;;;;24.85;14.95;;;3.40;80.60;;;;;;5074143;28;20380;-67
2020/12/08 05:50:22;;;;;;;23.42;13.60;;;3.40;80.60;;;;;;5071254;28;20499;-67
2020/12/08 05:52:53;;;;;;;23.77;13.82;;;3.40;80.60;;;;;;5069174;28;20056;-67
2020/12/08 05:55:23;;;;;;;24.55;14.30;;;3.30;80.60;;;;;;5069625;28;20028;-67
2020/12/08 05:57:50;;;;;;;26.08;15.02;;;3.30;80.70;;;;;;5073784;28;20060;-68
2020/12/08 06:00:29;;;;;;;25.25;14.77;;;3.40;80.80;;;;;;5076355;28;20158;-68
2020/12/08 06:03:16;;;;;;;25.95;15.73;;;3.30;80.70;;;;;;5082072;28;20033;-68
2020/12/08 06:05:46;;;;;;;25.27;14.93;;;3.30;80.70;;;;;;5070643;28;20096;-68
2020/12/08 06:08:17;;;;;;;26.30;15.35;;;3.30;80.80;;;;;;5069277;28;20040;-68
2020/12/08 06:10:53;;;;;;;27.45;15.07;;;3.30;80.80;;;;;;5065774;28;20095;-68
2020/12/08 06:13:30;;;;;;;24.45;14.45;;;3.30;80.90;;;;;;5062177;28;20133;-68
2020/12/08 06:15:56;;;;;;;27.70;15.32;;;3.30;80.90;;;;;;5070275;28;20510;-68
2020/12/08 06:18:39;;;;;;;28.08;15.85;;;3.20;80.90;;;;;;5068016;28;20058;-68
2020/12/08 06:21:23;;;;;;;25.67;14.93;;;3.30;80.90;;;;;;5078733;28;20064;-69
2020/12/08 06:23:52;;;;;;;26.17;15.50;;;3.20;80.90;;;;;;5067438;28;20036;-68
2020/12/08 06:26:28;;;;;;;29.70;16.25;;;3.20;81.00;;;;;;5070135;28;20032;-68
2020/12/08 06:28:54;;;;;;;26.80;15.43;;;3.20;81.00;;;;;;5066532;28;20576;-67
2020/12/08 06:31:21;;;;;;;27.00;15.07;;;3.30;81.10;;;;;;5069342;28;20029;-68
2020/12/08 06:33:51;;;;;;;26.40;15.55;;;3.30;81.10;;;;;;5069696;28;20031;-68
2020/12/08 06:36:19;;;;;;;28.75;16.40;;;3.30;81.10;;;;;;5069508;28;20068;-68
2020/12/08 06:39:05;;;;;;;24.77;14.43;;;3.30;81.10;;;;;;5068503;28;20040;-68
2020/12/08 06:41:32;;;;;;;25.70;15.65;;;3.30;80.80;;;;;;5069536;28;20100;-68
2020/12/08 06:43:59;;;;;;;27.17;15.60;;;3.30;80.80;;;;;;5069047;28;20032;-68
2020/12/08 06:46:26;;;;;;;25.15;14.20;;;3.30;80.50;;;;;;5067352;28;20032;-67
2020/12/08 06:49:06;;;;;;;27.38;15.43;;;3.30;80.50;;;;;;5067657;28;20029;-68
2020/12/08 06:51:32;;;;;;;25.52;14.57;;;3.30;80.40;;;;;;5058124;28;20037;-68
2020/12/08 06:53:58;;;;;;;24.75;14.27;;;3.20;80.40;;;;;;5063908;28;20024;-68
2020/12/08 06:56:31;;;;;;;25.83;14.90;;;3.20;80.40;;;;;;5070401;28;20032;-68
2020/12/08 06:58:57;;;;;;;25.88;14.73;;;3.20;80.40;;;;;;5069163;28;20033;-68
2020/12/08 07:01:24;;;;;;;28.08;16.48;;;3.20;80.50;;;;;;5069180;28;20499;-68
2020/12/08 07:03:51;;;;;;;27.17;15.32;;;3.20;80.60;;;;;;5077537;28;20032;-68
2020/12/08 07:06:16;;;;;;;29.73;17.17;;;3.20;80.60;;;;;;5077063;28;20021;-68
2020/12/08 07:08:47;;;;;;;29.23;16.33;;;3.20;80.70;;;;;;5071114;28;20033;-68
2020/12/08 07:11:17;;;;;;;30.58;17.02;;;3.20;80.70;;;;;;5070144;28;20027;-68
2020/12/08 07:14:04;;;;;;;28.42;16.63;;;3.20;80.70;;;;;;5089566;28;20032;-67
2020/12/08 07:16:31;;;;;;;28.85;15.45;;;3.20;80.70;;;;;;5068109;28;20025;-68
2020/12/08 07:18:57;;;;;;;30.38;16.20;;;3.20;80.70;;;;;;5066444;28;20108;-68
2020/12/08 07:21:24;;;;;;;29.08;16.33;;;3.20;80.80;;;;;;5080577;28;20560;-68
2020/12/08 07:23:55;;;;;;;29.65;16.30;;;3.20;80.80;;;;;;5070128;28;20039;-67
2020/12/08 07:26:26;;;;;;;30.83;16.23;;;3.20;80.90;;;;;;5067757;28;20403;-68
2020/12/08 07:28:57;;;;;;;28.58;16.55;;;3.10;80.80;;;;;;5086292;28;20077;-67
2020/12/08 07:31:25;;;;;;;29.92;16.17;;;3.20;81.00;;;;;;5068929;28;20028;-68
2020/12/08 07:33:51;;;;;;;30.17;16.02;;;3.20;81.00;;;;;;5067203;28;20399;-68
2020/12/08 07:36:37;;;;;;;29.90;16.77;;;3.20;80.90;;;;;;5068598;28;20104;-68
2020/12/08 07:39:03;;;;;;;29.27;17.10;;;3.20;80.80;;;;;;5066538;28;20033;-69
2020/12/08 07:41:31;;;;;;;27.67;15.55;;;3.20;80.70;;;;;;5066530;28;20033;-68
2020/12/08 07:43:58;;;;;;;27.50;15.65;;;3.20;80.80;;;;;;5068113;28;20037;-68
2020/12/08 07:46:28;;;;;;;26.05;14.77;;;3.10;80.70;;;;;;5061346;28;20028;-68
2020/12/08 07:49:09;;;;;;;25.15;14.70;;;3.10;80.70;;;;;;5066242;28;20044;-69
2020/12/08 07:51:37;;;;;;;25.17;14.30;;;3.10;80.70;;;;;;5067758;28;20039;-68
2020/12/08 07:54:05;;;;;;;26.88;15.15;;;3.10;80.70;;;;;;5065844;28;20028;-68
2020/12/08 07:56:32;;;;;;;29.02;15.02;;;3.10;80.80;;;;;;5071360;28;20554;-68
2020/12/08 07:58:58;;;;;;;29.25;15.95;;;3.10;81.00;;;;;;5066883;28;20033;-69
2020/12/08 08:01:25;;;;;;;32.08;17.90;;;3.10;81.00;;;;;;5065279;28;20074;-66
2020/12/08 08:03:51;;;;;;;27.65;15.70;;;3.10;80.90;;;;;;5054409;28;20025;-68
2020/12/08 08:06:19;;;;;;;28.35;15.70;;;3.10;81.00;;;;;;5065734;28;20046;-68
2020/12/08 08:08:46;;;;;;;27.98;15.43;;;3.20;81.10;;;;;;5058205;28;20041;-67
2020/12/08 08:11:12;;;;;;;31.70;17.02;;;3.30;81.10;;;;;;5060332;28;20040;-68
2020/12/08 08:13:37;;;;;;;27.67;15.43;;;3.10;80.90;;;;;;5057219;28;20037;-68
2020/12/08 08:16:03;;;;;;;28.98;16.35;;;3.10;81.70;;;;;;5064039;28;20055;-68
2020/12/08 08:18:31;;;;;;;25.95;14.40;;;3.10;80.90;;;;;;5067340;28;20093;-68
2020/12/08 08:20:58;;;;;;;28.15;15.23;;;3.10;80.90;;;;;;5066704;28;20032;-67
2020/12/08 08:23:24;;;;;;;27.92;15.65;;;3.10;81.00;;;;;;5064995;28;20499;-68
2020/12/08 08:25:50;;;;;;;28.50;15.57;;;3.10;81.00;;;;;;5067174;28;20044;-68
2020/12/08 08:28:16;;;;;;;26.98;15.25;;;3.10;81.00;;;;;;5067038;28;20086;-69
2020/12/08 08:30:41;;;;;;;27.30;15.68;;;3.10;81.00;;;;;;5066406;28;20076;-68
2020/12/08 08:33:07;;;;;;;27.30;15.00;;;3.20;81.10;;;;;;5066655;28;20041;-69
2020/12/08 08:35:32;;;;;;;27.02;14.93;;;3.20;81.00;;;;;;5065137;28;20380;-68
2020/12/08 08:37:59;;;;;;;24.98;14.75;;;3.20;81.00;;;;;;5069794;28;20044;-68
2020/12/08 08:40:29;;;;;;;28.95;15.88;;;3.20;80.90;;;;;;5070395;28;20032;-69
2020/12/08 08:42:55;;;;;;;27.85;16.02;;;3.20;80.90;;;;;;5063552;28;20089;-70
2020/12/08 08:45:24;;;;;;;28.75;15.43;;;3.20;80.90;;;;;;5067173;28;20040;-70
2020/12/08 08:47:49;;;;;;;28.05;15.55;;;3.20;80.90;;;;;;5060704;28;20094;-70
2020/12/08 08:50:15;;;;;;;27.98;14.63;;;3.20;81.10;;;;;;5069724;28;20063;-70
2020/12/08 08:52:41;;;;;;;30.88;17.05;;;3.20;80.90;;;;;;5067720;28;20032;-70
2020/12/08 08:55:09;;;;;;;30.58;17.05;;;3.30;80.80;;;;;;5068628;28;20037;-69
2020/12/08 08:57:38;;;;;;;29.80;16.63;;;3.20;80.70;;;;;;5071493;28;20032;-69
2020/12/08 09:00:08;;;;;;;29.25;16.75;;;3.20;80.50;;;;;;5073827;28;20455;-69
2020/12/08 09:02:34;;;;;;;30.10;16.50;;;3.20;80.40;;;;;;5068521;28;20028;-69
2020/12/08 09:05:00;;;;;;;29.90;15.90;;;3.20;80.60;;;;;;5070327;28;20140;-69
2020/12/08 09:07:28;;;;;;;33.42;17.67;;;3.20;80.60;;;;;;5073865;28;20025;-70
2020/12/08 09:09:54;;;;;;;31.50;17.20;;;3.10;80.60;;;;;;5071372;28;20678;-69
2020/12/08 09:12:20;;;;;;;31.25;16.80;;;3.10;80.50;;;;;;5065874;28;20471;-70
2020/12/08 09:14:48;;;;;;;33.20;17.52;;;3.10;80.70;;;;;;5058293;28;20101;-70
2020/12/08 09:17:13;;;;;;;31.05;16.70;;;3.10;80.80;;;;;;5071300;28;20036;-69
2020/12/08 09:19:39;;;;;;;29.65;15.75;;;3.10;80.80;;;;;;5077200;28;20061;-70
2020/12/08 09:22:06;;;;;;;28.10;16.05;;;3.20;80.90;;;;;;5069886;28;20028;-70
2020/12/08 09:24:33;;;;;;;28.95;16.17;;;3.20;80.90;;;;;;5066250;28;20035;-69
2020/12/08 09:26:59;;;;;;;30.70;15.73;;;3.10;80.70;;;;;;5070319;28;20124;-69
2020/12/08 09:29:25;;;;;;;30.67;15.90;;;3.20;80.70;;;;;;5076993;28;20035;-70
2020/12/08 09:31:58;;;;;;;31.15;16.15;;;3.10;80.50;;;;;;5067230;28;20036;-69
2020/12/08 09:34:25;;;;;;;31.58;17.60;;;3.10;80.40;;;;;;5069022;28;20499;-69
2020/12/08 09:36:52;;;;;;;28.98;15.68;;;3.10;80.40;;;;;;5078553;28;20062;-69
2020/12/08 09:39:18;;;;;;;33.40;17.13;;;3.10;80.50;;;;;;5070433;28;20028;-69
2020/12/08 09:41:44;;;;;;;29.88;15.93;;;3.10;80.40;;;;;;5059793;28;20029;-69
2020/12/08 09:44:10;;;;;;;30.70;16.25;;;3.10;80.60;;;;;;5058188;28;20119;-69
2020/12/08 09:46:43;;;;;;;32.60;17.08;;;3.10;80.70;;;;;;5068837;28;20440;-69
2020/12/08 09:49:10;;;;;;;29.13;15.95;;;3.10;80.70;;;;;;5072197;28;20043;-70
2020/12/08 09:51:36;;;;;;;30.92;15.80;;;3.10;80.70;;;;;;5066815;28;20036;-69
2020/12/08 09:54:02;;;;;;;26.38;14.40;;;3.10;80.90;;;;;;5070904;28;20107;-70
2020/12/08 09:56:28;;;;;;;30.65;15.77;;;3.10;81.00;;;;;;5067678;28;20036;-70
2020/12/08 09:58:54;;;;;;;28.77;15.48;;;3.10;81.20;;;;;;5069354;28;20510;-69
2020/12/08 10:01:27;;;;;;;28.52;16.10;;;3.10;81.40;;;;;;5070532;28;20028;-69
2020/12/08 10:03:54;;;;;;;31.92;16.00;;;3.10;81.30;;;;;;5069329;28;20028;-68
2020/12/08 10:06:20;;;;;;;33.70;17.45;;;3.20;81.20;;;;;;5075215;28;20063;-70
2020/12/08 10:08:47;;;;;;;32.05;16.98;;;3.20;81.10;;;;;;5066630;28;20045;-69
2020/12/08 10:11:16;;;;;;;31.90;16.33;;;3.20;81.80;;;;;;5065343;28;20083;-70
2020/12/08 10:13:42;;;;;;;30.95;16.10;;;3.20;80.90;;;;;;5064681;28;20546;-69
2020/12/08 10:16:09;;;;;;;27.98;15.13;;;3.20;81.10;;;;;;5065118;28;20414;-69
2020/12/08 10:18:35;;;;;;;28.70;15.20;;;3.20;81.10;;;;;;5066993;28;20094;-68
2020/12/08 10:21:01;;;;;;;26.10;14.52;;;3.20;80.90;;;;;;5072426;28;20053;-68
2020/12/08 10:23:27;;;;;;;31.58;16.27;;;3.20;80.90;;;;;;5072829;28;20024;-69
2020/12/08 10:25:53;;;;;;;29.67;15.38;;;3.20;80.90;;;;;;5067946;28;20082;-70
2020/12/08 10:28:19;;;;;;;24.20;14.13;;;3.20;80.70;;;;;;5068003;28;20033;-70
2020/12/08 10:30:45;;;;;;;26.27;13.88;;;3.20;80.80;;;;;;5067463;28;20037;-69
2020/12/08 10:33:11;;;;;;;28.73;15.45;;;3.20;80.70;;;;;;5073705;28;20040;-69
2020/12/08 10:35:36;;;;;;;25.63;14.48;;;3.20;80.70;;;;;;5065831;28;20032;-70
2020/12/08 10:38:02;;;;;;;24.67;13.57;;;3.20;80.60;;;;;;5067614;28;20102;-70
2020/12/08 10:40:28;;;;;;;27.05;14.15;;;3.30;80.70;;;;;;5065322;28;20395;-69
2020/12/08 10:42:54;;;;;;;28.73;15.35;;;3.30;80.70;;;;;;5066319;28;20036;-70
2020/12/08 10:45:20;;;;;;;29.52;15.85;;;3.30;80.80;;;;;;5067453;28;20568;-69
2020/12/08 10:47:46;;;;;;;28.23;15.00;;;3.30;80.80;;;;;;5065095;28;20041;-69
2020/12/08 10:50:12;;;;;;;29.05;15.48;;;3.30;80.80;;;;;;5068142;28;20040;-70
2020/12/08 10:52:37;;;;;;;26.08;14.45;;;3.30;80.80;;;;;;5067550;28;20100;-69
2020/12/08 10:55:03;;;;;;;28.98;15.45;;;3.30;80.80;;;;;;5063293;28;20159;-69
2020/12/08 10:57:29;;;;;;;29.58;15.80;;;3.30;80.70;;;;;;5076421;22;20044;-69
2020/12/08 10:59:55;;;;;;;29.15;16.05;;;3.30;80.70;;;;;;5056683;28;20191;-67
2020/12/08 11:02:21;;;;;;;26.23;15.13;;;3.30;80.60;;;;;;5065447;28;20029;-68
2020/12/08 11:04:47;;;;;;;29.05;14.75;;;3.30;80.70;;;;;;5058522;28;20043;-69
2020/12/08 11:07:13;;;;;;;26.00;15.00;;;3.30;80.80;;;;;;5060812;28;20466;-67
2020/12/08 11:09:39;;;;;;;28.95;15.18;;;3.30;80.90;;;;;;5059456;28;20112;-68
2020/12/08 11:12:04;;;;;;;26.05;14.82;;;3.30;80.80;;;;;;5061452;28;20043;-66
2020/12/08 11:14:30;;;;;;;28.00;15.23;;;3.30;80.80;;;;;;5061968;28;20071;-69
2020/12/08 11:16:58;;;;;;;29.42;15.98;;;3.30;80.60;;;;;;5060837;28;20407;-69
2020/12/08 11:19:24;;;;;;;28.77;15.07;;;3.20;80.40;;;;;;5064053;28;20037;-69
2020/12/08 11:21:50;;;;;;;29.10;15.27;;;3.20;80.60;;;;;;5054288;28;20051;-69
2020/12/08 11:24:15;;;;;;;26.38;14.52;;;3.20;80.80;;;;;;5057968;28;20408;-69
2020/12/08 11:26:44;;;;;;;26.23;14.18;;;3.20;80.90;;;;;;5057164;28;20063;-69
2020/12/08 11:29:10;;;;;;;24.10;12.75;;;3.20;80.90;;;;;;5060622;28;20423;-70
2020/12/08 11:31:36;;;;;;;26.15;13.32;;;3.20;81.10;;;;;;5053878;28;20029;-70
2020/12/08 11:34:01;;;;;;;25.38;13.63;;;3.20;81.10;;;;;;5061425;28;20551;-70
2020/12/08 11:36:27;;;;;;;27.25;14.07;;;3.30;81.20;;;;;;5055624;28;20300;-69
2020/12/08 11:38:52;;;;;;;23.80;13.65;;;3.30;81.30;;;;;;5064293;28;20518;-69
2020/12/08 11:41:18;;;;;;;22.90;12.43;;;3.30;81.20;;;;;;5056342;28;20041;-69
2020/12/08 11:43:44;;;;;;;22.30;12.35;;;3.30;81.20;;;;;;5056334;28;20553;-68
2020/12/08 11:46:13;;;;;;;24.30;13.73;;;3.30;81.30;;;;;;5053998;28;21203;-68
2020/12/08 11:48:41;;;;;;;22.00;12.40;;;3.30;81.10;;;;;;5064962;28;20032;-69
2020/12/08 11:51:06;;;;;;;22.63;12.55;;;3.40;81.20;;;;;;5060070;28;20412;-69
2020/12/08 11:53:32;;;;;;;21.42;11.95;;;3.40;81.20;;;;;;5059888;28;20036;-68
2020/12/08 11:55:58;;;;;;;21.10;11.75;;;3.40;81.10;;;;;;5062332;28;20116;-69
2020/12/08 11:58:24;;;;;;;25.08;13.98;;;3.40;81.10;;;;;;5061652;28;20040;-70
2020/12/08 12:00:49;;;;;;;24.30;13.15;;;3.40;80.10;;;;;;5066159;28;20055;-70
2020/12/08 12:03:15;;;;;;;22.05;12.70;;;3.50;80.90;;;;;;5064610;28;20051;-70
2020/12/08 12:05:40;;;;;;;22.35;12.50;;;3.50;80.70;;;;;;5063483;28;20073;-70
2020/12/08 12:08:06;;;;;;;21.00;12.05;;;3.50;80.80;;;;;;5054276;28;20024;-69
2020/12/08 12:10:33;;;;;;;24.10;13.32;;;3.50;80.90;;;;;;5059094;28;20402;-69
2020/12/08 12:12:58;;;;;;;21.73;12.43;;;3.50;80.90;;;;;;5064638;28;20041;-69
2020/12/08 12:15:24;;;;;;;21.10;12.50;;;3.50;80.90;;;;;;5058086;28;20404;-69
2020/12/08 12:17:50;;;;;;;23.10;13.55;;;3.50;80.70;;;;;;5063382;28;20032;-67
2020/12/08 12:20:15;;;;;;;21.65;12.05;;;3.50;80.70;;;;;;5064281;22;20098;-69
2020/12/08 12:22:41;;;;;;;21.50;11.73;;;3.50;80.60;;;;;;5061877;28;20052;-69
2020/12/08 12:25:07;;;;;;;22.92;13.02;;;3.50;80.60;;;;;;5061215;28;20039;-69
2020/12/08 12:27:32;;;;;;;23.77;13.55;;;3.50;80.60;;;;;;5066915;28;20027;-69
2020/12/08 12:29:58;;;;;;;24.20;13.23;;;3.50;80.60;;;;;;5067188;28;20036;-70
2020/12/08 12:32:25;;;;;;;23.23;12.68;;;3.50;80.50;;;;;;5063144;28;20037;-70
2020/12/08 12:34:50;;;;;;;23.75;12.80;;;3.50;80.60;;;;;;5065980;28;20078;-69
2020/12/08 12:37:16;;;;;;;21.52;12.27;;;3.50;80.70;;;;;;5065509;28;20033;-69